createdAt,value
2022-10-07T00:00:16.752Z,97277.09
2022-10-07T00:04:25.569Z,97274.63
2022-10-07T00:08:14.418Z,97276.03
2022-10-07T00:12:06.273Z,97271.48
2022-10-07T00:15:55.095Z,97273.94
2022-10-07T00:19:43.877Z,97268.45
2022-10-07T00:23:32.686Z,97268.20
2022-10-07T00:27:21.546Z,97275.38
2022-10-07T00:31:10.630Z,97274.86
2022-10-07T00:34:59.634Z,97273.71
2022-10-07T00:38:48.619Z,97274.39
2022-10-07T00:41:50.869Z,97274.61
2022-10-07T00:44:31.307Z,97267.46
2022-10-07T00:47:20.422Z,97264.05
2022-10-07T00:50:22.906Z,97263.77
2022-10-07T00:53:50.908Z,97263.16
2022-10-07T00:57:22.719Z,97257.42
2022-10-07T01:01:11.198Z,97257.38
2022-10-07T01:05:00.017Z,97261.08
2022-10-07T01:08:48.597Z,97269.61
2022-10-07T01:12:48.363Z,97273.22
2022-10-07T01:16:45.428Z,97266.05
2022-10-07T01:20:49.089Z,97260.06
2022-10-07T01:23:56.510Z,97257.41
2022-10-07T01:27:06.407Z,97253.05
2022-10-07T01:30:14.283Z,97248.12
2022-10-07T01:32:55.094Z,97243.44
2022-10-07T01:36:24.317Z,97242.15
2022-10-07T01:39:53.815Z,97243.72
2022-10-07T01:43:42.728Z,97240.23
2022-10-07T01:47:31.697Z,97240.63
2022-10-07T01:51:20.523Z,97240.23
2022-10-07T01:55:18.429Z,97239.32
2022-10-07T01:59:12.919Z,97244.34
2022-10-07T02:03:06.997Z,97241.57
2022-10-07T02:07:01.408Z,97235.79
2022-10-07T02:11:02.133Z,97232.30
2022-10-07T02:14:36.725Z,97234.58
2022-10-07T02:17:47.964Z,97236.73
2022-10-07T02:21:07.506Z,97236.53
2022-10-07T02:23:40.858Z,97238.55
2022-10-07T02:26:22.755Z,97242.73
2022-10-07T02:29:23.316Z,97242.91
2022-10-07T02:32:52.100Z,97243.51
2022-10-07T02:36:24.145Z,97242.48
2022-10-07T02:40:12.957Z,97239.56
2022-10-07T02:43:47.749Z,97244.77
2022-10-07T02:47:41.259Z,97244.80
2022-10-07T02:51:21.424Z,97248.27
2022-10-07T02:54:50.550Z,97247.94
2022-10-07T02:58:39.369Z,97247.59
2022-10-07T03:01:57.560Z,97246.30
2022-10-07T03:05:10.212Z,97247.54
2022-10-07T03:07:40.349Z,97246.98
2022-10-07T03:10:16.951Z,97245.78
2022-10-07T03:12:51.416Z,97242.51
2022-10-07T03:15:42.785Z,97242.54
2022-10-07T03:18:33.735Z,97247.54
2022-10-07T03:21:50.002Z,97249.39
2022-10-07T03:24:51.424Z,97249.84
2022-10-07T03:27:23.553Z,97245.36
2022-10-07T03:30:53.115Z,97239.98
2022-10-07T03:34:41.195Z,97230.70
2022-10-07T03:37:49.943Z,97230.06
2022-10-07T03:41:02.915Z,97232.61
2022-10-07T03:43:32.579Z,97229.83
2022-10-07T03:46:02.709Z,97228.09
2022-10-07T03:48:31.902Z,97224.23
2022-10-07T03:51:01.895Z,97221.98
2022-10-07T03:53:31.840Z,97224.09
2022-10-07T03:56:03.260Z,97227.77
2022-10-07T03:58:32.629Z,97229.36
2022-10-07T04:01:10.690Z,97229.74
2022-10-07T04:03:42.756Z,97232.79
2022-10-07T04:06:11.545Z,97234.04
2022-10-07T04:08:41.279Z,97227.11
2022-10-07T04:11:33.839Z,97223.39
2022-10-07T04:14:33.513Z,97224.79
2022-10-07T04:17:42.270Z,97222.54
2022-10-07T04:20:17.980Z,97221.30
2022-10-07T04:22:49.501Z,97222.23
2022-10-07T04:25:37.715Z,97219.57
2022-10-07T04:28:20.966Z,97216.31
2022-10-07T04:30:51.888Z,97220.23
2022-10-07T04:33:24.904Z,97217.36
2022-10-07T04:35:55.571Z,97219.47
2022-10-07T04:38:28.381Z,97221.15
2022-10-07T04:40:58.491Z,97217.00
2022-10-07T04:43:29.019Z,97219.08
2022-10-07T04:46:03.875Z,97217.45
2022-10-07T04:48:51.410Z,97214.16
2022-10-07T04:52:39.879Z,97213.31
2022-10-07T04:55:47.256Z,97211.27
2022-10-07T04:59:15.085Z,97212.59
2022-10-07T05:02:13.887Z,97214.54
2022-10-07T05:04:45.100Z,97215.96
2022-10-07T05:07:13.274Z,97216.02
2022-10-07T05:09:41.818Z,97216.21
2022-10-07T05:12:10.264Z,97216.36
2022-10-07T05:14:43.260Z,97217.20
2022-10-07T05:17:12.728Z,97215.12
2022-10-07T05:19:41.538Z,97215.98
2022-10-07T05:22:26.294Z,97215.52
2022-10-07T05:24:54.700Z,97220.64
2022-10-07T05:27:23.664Z,97221.25
2022-10-07T05:29:55.477Z,97221.81
2022-10-07T05:32:25.846Z,97223.17
2022-10-07T05:34:54.886Z,97221.05
2022-10-07T05:37:24.588Z,97221.64
2022-10-07T05:39:53.407Z,97221.56
2022-10-07T05:42:29.899Z,97221.55
2022-10-07T05:45:01.587Z,97224.05
2022-10-07T05:47:33.377Z,97228.04
2022-10-07T05:50:04.441Z,97225.85
2022-10-07T05:52:33.723Z,97225.63
2022-10-07T05:55:04.056Z,97231.47
2022-10-07T05:57:34.925Z,97229.27
2022-10-07T06:00:05.455Z,97231.96
2022-10-07T06:02:42.305Z,97234.47
2022-10-07T06:05:10.707Z,97235.50
2022-10-07T06:07:38.838Z,97239.29
2022-10-07T06:10:27.095Z,97240.30
2022-10-07T06:13:10.348Z,97240.09
2022-10-07T06:15:42.377Z,97235.38
2022-10-07T06:18:14.824Z,97233.70
2022-10-07T06:20:56.581Z,97234.54
2022-10-07T06:23:28.088Z,97235.21
2022-10-07T06:26:03.152Z,97236.95
2022-10-07T06:28:53.386Z,97234.75
2022-10-07T06:31:26.159Z,97234.42
2022-10-07T06:34:00.608Z,97234.06
2022-10-07T06:36:29.606Z,97230.96
2022-10-07T06:38:58.796Z,97234.84
2022-10-07T06:41:34.881Z,97235.58
2022-10-07T06:44:22.044Z,97235.70
2022-10-07T06:47:12.232Z,97239.00
2022-10-07T06:49:42.661Z,97243.89
2022-10-07T06:52:13.128Z,97243.21
2022-10-07T06:54:58.311Z,97247.43
2022-10-07T06:57:44.764Z,97249.44
2022-10-07T07:00:34.046Z,97249.05
2022-10-07T07:03:02.330Z,97254.77
2022-10-07T07:05:41.397Z,97254.52
2022-10-07T07:08:17.357Z,97259.16
2022-10-07T07:11:28.299Z,97259.64
2022-10-07T07:13:59.733Z,97259.41
2022-10-07T07:16:28.639Z,97262.36
2022-10-07T07:18:59.635Z,97253.29
2022-10-07T07:21:30.913Z,97251.91
2022-10-07T07:24:00.484Z,97248.02
2022-10-07T07:26:42.085Z,97246.17
2022-10-07T07:29:12.550Z,97245.52
2022-10-07T07:31:51.149Z,97245.77
2022-10-07T07:34:40.341Z,97246.45
2022-10-07T07:37:20.496Z,97242.44
2022-10-07T07:40:15.453Z,97239.88
2022-10-07T07:43:44.193Z,97234.52
2022-10-07T07:46:16.579Z,97234.48
2022-10-07T07:48:44.738Z,97231.35
2022-10-07T07:51:18.062Z,97228.48
2022-10-07T07:53:50.119Z,97230.60
2022-10-07T07:56:20.799Z,97234.41
2022-10-07T07:58:57.408Z,97235.92
2022-10-07T08:01:26.157Z,97234.98
2022-10-07T08:03:55.411Z,97238.52
2022-10-07T08:06:25.267Z,97237.88
2022-10-07T08:08:59.003Z,97233.94
2022-10-07T08:11:39.137Z,97235.21
2022-10-07T08:14:17.360Z,97235.77
2022-10-07T08:16:47.407Z,97235.06
2022-10-07T08:19:15.518Z,97232.95
2022-10-07T08:21:43.971Z,97236.44
2022-10-07T08:24:16.300Z,97233.41
2022-10-07T08:26:45.427Z,97235.23
2022-10-07T08:29:15.325Z,97228.24
2022-10-07T08:31:43.388Z,97224.65
2022-10-07T08:34:11.828Z,97223.55
2022-10-07T08:36:40.731Z,97217.18
2022-10-07T08:39:09.941Z,97213.20
2022-10-07T08:41:56.715Z,97210.34
2022-10-07T08:44:36.033Z,97211.92
2022-10-07T08:47:22.347Z,97212.55
2022-10-07T08:50:41.351Z,97212.91
2022-10-07T08:53:34.535Z,97214.67
2022-10-07T08:56:02.391Z,97211.05
2022-10-07T08:58:49.085Z,97211.69
2022-10-07T09:01:22.734Z,97210.56
2022-10-07T09:04:02.895Z,97210.27
2022-10-07T09:06:56.737Z,97207.55
2022-10-07T09:09:29.348Z,97206.27
2022-10-07T09:12:01.108Z,97201.57
2022-10-07T09:14:38.012Z,97201.24
2022-10-07T09:17:35.007Z,97200.88
2022-10-07T09:20:16.481Z,97201.30
2022-10-07T09:22:52.348Z,97197.55
2022-10-07T09:25:26.421Z,97195.56
2022-10-07T09:27:58.835Z,97195.14
2022-10-07T09:30:31.488Z,97193.97
2022-10-07T09:32:59.490Z,97191.03
2022-10-07T09:35:31.882Z,97187.02
2022-10-07T09:38:09.230Z,97183.59
2022-10-07T09:41:01.719Z,97184.90
2022-10-07T09:43:32.811Z,97187.16
2022-10-07T09:46:01.668Z,97187.60
2022-10-07T09:48:33.387Z,97183.30
2022-10-07T09:51:22.177Z,97178.40
2022-10-07T09:54:24.250Z,97173.52
2022-10-07T09:56:59.553Z,97173.41
2022-10-07T09:59:37.005Z,97172.55
2022-10-07T10:02:23.403Z,97165.89
2022-10-07T10:04:57.242Z,97166.82
2022-10-07T10:07:34.631Z,97162.83
2022-10-07T10:10:45.302Z,97156.18
2022-10-07T10:13:39.404Z,97152.21
2022-10-07T10:16:27.932Z,97148.83
2022-10-07T10:19:05.657Z,97149.41
2022-10-07T10:21:43.310Z,97144.33
2022-10-07T10:24:14.816Z,97139.40
2022-10-07T10:27:03.265Z,97130.84
2022-10-07T10:29:48.758Z,97128.56
2022-10-07T10:32:39.941Z,97127.55
2022-10-07T10:35:28.191Z,97123.70
2022-10-07T10:39:10.089Z,97122.05
2022-10-07T10:41:54.299Z,97118.49
2022-10-07T10:45:00.104Z,97116.30
2022-10-07T10:48:00.878Z,97115.34
2022-10-07T10:50:51.553Z,97110.50
2022-10-07T10:53:34.682Z,97106.77
2022-10-07T10:57:10.799Z,97106.98
2022-10-07T11:00:24.150Z,97100.27
2022-10-07T11:03:53.581Z,97099.71
2022-10-07T11:06:47.099Z,97097.02
2022-10-07T11:09:19.162Z,97091.19
2022-10-07T11:11:47.124Z,97088.50
2022-10-07T11:14:25.101Z,97085.17
2022-10-07T11:17:16.059Z,97086.50
2022-10-07T11:20:16.534Z,97075.89
2022-10-07T11:23:08.360Z,97068.92
2022-10-07T11:25:49.813Z,97066.08
2022-10-07T11:28:40.266Z,97065.22
2022-10-07T11:31:41.522Z,97057.45
2022-10-07T11:34:37.228Z,97054.23
2022-10-07T11:37:32.675Z,97052.92
2022-10-07T11:40:05.662Z,97050.87
2022-10-07T11:43:12.821Z,97051.36
2022-10-07T11:46:12.017Z,97052.54
2022-10-07T11:49:06.259Z,97049.53
2022-10-07T11:52:01.790Z,97047.73
2022-10-07T11:54:41.956Z,97043.96
2022-10-07T11:57:39.508Z,97035.60
2022-10-07T12:00:22.788Z,97035.59
2022-10-07T12:03:17.558Z,97038.02
2022-10-07T12:06:06.667Z,97036.75
2022-10-07T12:08:38.896Z,97035.95
2022-10-07T12:11:17.460Z,97035.50
2022-10-07T12:14:10.388Z,97035.81
2022-10-07T12:17:04.099Z,97040.76
2022-10-07T12:20:15.848Z,97041.21
2022-10-07T12:22:46.171Z,97036.27
2022-10-07T12:25:32.592Z,97032.86
2022-10-07T12:28:05.829Z,97031.26
2022-10-07T12:30:55.434Z,97033.96
2022-10-07T12:33:45.293Z,97033.11
2022-10-07T12:36:23.829Z,97032.29
2022-10-07T12:39:00.890Z,97028.94
2022-10-07T12:42:03.441Z,97019.13
2022-10-07T12:44:53.324Z,97018.72
2022-10-07T12:47:50.628Z,97017.34
2022-10-07T12:51:19.462Z,97018.67
2022-10-07T12:54:52.880Z,97015.86
2022-10-07T12:58:20.489Z,97013.70
2022-10-07T13:02:01.504Z,97013.54
2022-10-07T13:06:07.852Z,97010.78
2022-10-07T13:09:53.963Z,97002.52
2022-10-07T13:12:54.109Z,96998.48
2022-10-07T13:15:55.505Z,96994.04
2022-10-07T13:19:33.113Z,96990.33
2022-10-07T13:22:34.306Z,96988.02
2022-10-07T13:26:02.556Z,96982.91
2022-10-07T13:29:23.245Z,96980.86
2022-10-07T13:33:18.789Z,96979.27
2022-10-07T13:36:56.039Z,96974.39
2022-10-07T13:40:58.927Z,96969.71
2022-10-07T13:44:00.341Z,96970.17
2022-10-07T13:47:29.077Z,96968.81
2022-10-07T13:51:27.714Z,96963.46
2022-10-07T13:55:24.580Z,96957.84
2022-10-07T13:59:18.936Z,96956.44
2022-10-07T14:03:11.622Z,96953.60
2022-10-07T14:07:00.103Z,96949.48
2022-10-07T14:10:49.955Z,96950.26
2022-10-07T14:14:39.318Z,96945.05
2022-10-07T14:18:35.506Z,96944.20
2022-10-07T14:22:29.802Z,96936.70
2022-10-07T14:26:37.368Z,96935.33
2022-10-07T14:30:27.965Z,96936.02
2022-10-07T14:33:35.574Z,96935.52
2022-10-07T14:36:09.257Z,96937.28
2022-10-07T14:38:48.236Z,96939.11
2022-10-07T14:41:23.790Z,96941.80
2022-10-07T14:43:52.068Z,96940.38
2022-10-07T14:46:30.883Z,96937.13
2022-10-07T14:49:49.344Z,96937.27
2022-10-07T14:52:32.419Z,96934.33
2022-10-07T14:55:11.000Z,96931.63
2022-10-07T15:02:34.076Z,96933.35
2022-10-07T15:55:56.560Z,96916.46
2022-10-07T15:58:29.342Z,96914.73
2022-10-07T16:01:03.242Z,96911.05
2022-10-07T16:03:40.411Z,96907.44
2022-10-07T16:06:18.287Z,96910.42
2022-10-07T16:08:47.480Z,96908.40
2022-10-07T16:11:17.084Z,96906.80
2022-10-07T16:13:49.837Z,96906.06
2022-10-07T16:16:20.258Z,96907.27
2022-10-07T16:18:51.678Z,96907.73
2022-10-07T16:21:31.720Z,96905.18
2022-10-07T16:24:24.693Z,96909.68
2022-10-07T16:26:53.117Z,96911.71
2022-10-07T16:29:41.564Z,96909.91
2022-10-07T16:32:11.721Z,96913.16
2022-10-07T16:34:43.452Z,96911.46
2022-10-07T16:37:12.710Z,96914.48
2022-10-07T16:39:41.469Z,96914.65
2022-10-07T16:42:12.045Z,96910.46
2022-10-07T16:44:41.760Z,96910.30
2022-10-07T16:47:10.887Z,96911.84
2022-10-07T16:49:41.415Z,96910.44
2022-10-07T16:52:11.006Z,96907.76
2022-10-07T16:54:40.853Z,96904.79
2022-10-07T16:57:51.116Z,96905.56
2022-10-07T17:00:44.596Z,96900.91
2022-10-07T17:03:16.930Z,96904.14
2022-10-07T17:06:08.428Z,96903.35
2022-10-07T17:09:06.977Z,96901.91
2022-10-07T17:11:40.461Z,96904.69
2022-10-07T17:14:17.266Z,96903.16
2022-10-07T17:16:52.870Z,96905.79
2022-10-07T17:19:43.480Z,96910.46
2022-10-07T17:22:11.541Z,96905.99
2022-10-07T17:24:39.898Z,96903.10
2022-10-07T17:27:08.982Z,96903.07
2022-10-07T17:29:38.649Z,96904.25
2022-10-07T17:32:09.422Z,96902.86
2022-10-07T17:34:44.622Z,96901.98
2022-10-07T17:37:54.431Z,96902.13
2022-10-07T17:40:23.603Z,96901.61
2022-10-07T17:42:56.435Z,96908.97
2022-10-07T17:45:39.560Z,96904.00
2022-10-07T17:48:08.526Z,96904.15
2022-10-07T17:50:39.703Z,96902.10
2022-10-07T17:53:51.050Z,96900.81
2022-10-07T17:56:19.848Z,96900.63
2022-10-07T17:58:49.330Z,96897.63
2022-10-07T18:01:27.613Z,96897.80
2022-10-07T18:04:07.911Z,96896.55
2022-10-07T18:06:58.277Z,96892.20
2022-10-07T18:09:30.448Z,96893.17
2022-10-07T18:12:39.152Z,96898.12
2022-10-07T18:16:04.377Z,96894.25
2022-10-07T18:18:35.984Z,96889.56
2022-10-07T18:21:48.700Z,96891.08
2022-10-07T18:24:58.454Z,96895.52
2022-10-07T18:27:58.652Z,96896.83
2022-10-07T18:30:51.208Z,96899.57
2022-10-07T18:34:01.376Z,96896.20
2022-10-07T18:37:16.661Z,96891.90
2022-10-07T18:40:44.649Z,96891.41
2022-10-07T18:44:32.310Z,96893.27
2022-10-07T18:48:04.386Z,96891.80
2022-10-07T18:50:58.548Z,96889.60
2022-10-07T18:54:46.857Z,96893.42
2022-10-07T18:58:14.997Z,96894.73
2022-10-07T19:02:06.699Z,96896.16
2022-10-07T19:05:51.562Z,96896.73
2022-10-07T19:08:58.282Z,96892.35
2022-10-07T19:11:51.318Z,96896.89
2022-10-07T19:14:20.586Z,96894.98
2022-10-07T19:17:30.418Z,96895.38
2022-10-07T19:21:06.737Z,96897.67
2022-10-07T19:24:18.875Z,96906.80
2022-10-07T19:27:27.396Z,96908.55
2022-10-07T19:30:37.758Z,96907.50
2022-10-07T19:33:26.459Z,96906.89
2022-10-07T19:35:56.395Z,96906.81
2022-10-07T19:38:24.951Z,96907.38
2022-10-07T19:40:56.321Z,96905.56
2022-10-07T19:43:24.945Z,96904.98
2022-10-07T19:46:01.811Z,96905.20
2022-10-07T19:48:32.492Z,96902.70
2022-10-07T19:51:02.071Z,96902.21
2022-10-07T19:53:34.955Z,96902.36
2022-10-07T19:56:06.107Z,96901.91
2022-10-07T19:58:34.088Z,96901.48
2022-10-07T20:01:06.643Z,96900.41
2022-10-07T20:03:35.996Z,96899.19
2022-10-07T20:06:08.322Z,96898.27
2022-10-07T20:08:40.051Z,96900.09
2022-10-07T20:11:09.789Z,96895.98
2022-10-07T20:13:38.903Z,96893.39
2022-10-07T20:16:14.852Z,96893.52
2022-10-07T20:18:45.576Z,96888.89
2022-10-07T20:21:39.436Z,96890.23
2022-10-07T20:24:14.542Z,96888.77
2022-10-07T20:26:44.781Z,96883.69
2022-10-07T20:29:25.318Z,96884.08
2022-10-07T20:31:54.876Z,96885.77
2022-10-07T20:34:45.263Z,96886.36
2022-10-07T20:37:13.346Z,96888.50
2022-10-07T20:40:07.882Z,96886.75
2022-10-07T20:42:36.445Z,96881.94
2022-10-07T20:45:05.355Z,96882.80
2022-10-07T20:47:35.171Z,96886.95
2022-10-07T20:50:04.868Z,96884.14
2022-10-07T20:52:35.658Z,96879.73
2022-10-07T20:55:05.221Z,96879.40
2022-10-07T20:57:41.880Z,96879.55
2022-10-07T21:00:16.293Z,96878.88
2022-10-07T21:02:45.049Z,96879.73
2022-10-07T21:05:14.160Z,96882.30
2022-10-07T21:07:42.827Z,96883.96
2022-10-07T21:10:10.941Z,96880.05
2022-10-07T21:13:29.521Z,96877.31
2022-10-07T21:15:57.799Z,96876.07
2022-10-07T21:18:26.752Z,96876.80
2022-10-07T21:20:56.992Z,96877.92
2022-10-07T21:23:28.368Z,96875.04
2022-10-07T21:26:01.611Z,96870.10
2022-10-07T21:28:32.855Z,96868.94
2022-10-07T21:31:02.041Z,96867.14
2022-10-07T21:33:31.897Z,96866.88
2022-10-07T21:36:06.061Z,96863.63
2022-10-07T21:38:34.776Z,96858.30
2022-10-07T21:41:18.555Z,96858.14
2022-10-07T21:43:51.769Z,96856.31
2022-10-07T21:46:20.946Z,96850.95
2022-10-07T21:48:49.595Z,96847.73
2022-10-07T21:51:17.806Z,96848.52
2022-10-07T21:53:53.764Z,96847.73
2022-10-07T21:56:21.609Z,96847.58
2022-10-07T21:58:52.259Z,96848.45
2022-10-07T22:01:22.561Z,96849.70
2022-10-07T22:03:56.381Z,96849.98
2022-10-07T22:06:45.509Z,96847.19
2022-10-07T22:09:15.735Z,96847.45
2022-10-07T22:11:44.096Z,96840.81
2022-10-07T22:14:13.098Z,96839.77
2022-10-07T22:16:42.573Z,96836.86
2022-10-07T22:19:11.508Z,96836.06
2022-10-07T22:21:41.551Z,96833.41
2022-10-07T22:24:09.773Z,96831.77
2022-10-07T22:26:40.727Z,96828.05
2022-10-07T22:29:10.108Z,96823.48
2022-10-07T22:31:38.637Z,96822.67
2022-10-07T22:34:06.898Z,96823.46
2022-10-07T22:36:36.939Z,96821.27
2022-10-07T22:39:05.054Z,96821.39
2022-10-07T22:41:33.186Z,96818.36
2022-10-07T22:44:01.213Z,96816.57
2022-10-07T22:46:29.505Z,96813.30
2022-10-07T22:48:59.062Z,96810.01
2022-10-07T22:51:28.772Z,96808.39
2022-10-07T22:53:57.679Z,96803.51
2022-10-07T22:56:27.673Z,96800.50
2022-10-07T22:58:58.923Z,96799.38
2022-10-07T23:01:29.542Z,96796.83
2022-10-07T23:04:03.159Z,96798.50
2022-10-07T23:06:33.873Z,96799.61
2022-10-07T23:09:03.614Z,96797.66
2022-10-07T23:11:32.438Z,96794.55
2022-10-07T23:14:18.131Z,96790.77
2022-10-07T23:16:46.124Z,96790.73
2022-10-07T23:19:14.203Z,96790.35
2022-10-07T23:21:42.100Z,96789.29
2022-10-07T23:24:11.097Z,96790.88
2022-10-07T23:26:38.963Z,96789.48
2022-10-07T23:29:07.805Z,96785.70
2022-10-07T23:31:36.200Z,96786.77
2022-10-07T23:34:05.646Z,96786.91
2022-10-07T23:36:34.867Z,96783.02
2022-10-07T23:39:03.520Z,96782.39
2022-10-07T23:41:31.876Z,96782.48
2022-10-07T23:44:04.729Z,96782.29
2022-10-07T23:46:35.745Z,96780.91
2022-10-07T23:49:03.949Z,96782.88
2022-10-07T23:51:33.222Z,96778.66
2022-10-07T23:54:03.741Z,96777.48
2022-10-07T23:56:32.250Z,96772.96
2022-10-07T23:59:01.717Z,96772.75
